Terminal Aerodrome Forecast
Issued by NWS Corpus Christi, TX

Home | Current Version | Previous Version | Text Only | Print | Product List | Glossary On
Versions: 1 2 3 4 5 6 7 8 9 10 11 12
000
FTUS44 KCRP 241700
TAFVCT
TAF
KVCT 241724Z 2418/2518 03006KT P6SM SKC
      TEMPO 2509/2513 5SM BR=

USA.gov is the U.S. government's official web portal to all federal, state and local government web resources and services.